Hauptseite
METAR-TAF:

METAR-TAF

Flughäfen :

Bohrplattform

Sleipner, Norwegen

Breite: 58-22-00N, Länge: 001-54-25E, Höhe: 50 m

Beobachtung

Neuester Wetterbericht von vor 40 Minuten, um 03:20 UTC
Wind 23 kt aus Süd/Südwest
Temperatur 11°C
Luftfeuchtigkeit 94%
Luftdruck 1022 hPa
Sichtweite: 4100 m
feuchter Dunst

METAR: ENSL 160320Z AUTO 20023KT 4100NDV BR BKN006/// 11/10 Q1022 W08/S4

Zeit: 05:00 (04:00 UTC)

Prognose

Neuester Wetterbericht von vor 17 Stunden und 0 Minuten, um 11:00 UTC
Gültige Prognose vom 15 um 12 UTC bis 15 um 18 UTC
Wind 28 kt aus Süd
Sichtweite: 9000 m
Aufgelockert bewölkt in der Höhe von 1000 ft
Zeitweise
vom 15 um 12 UTC bis 15 um 18 UTC
Durchbrochene Bewölkung in der Höhe von 700 ft
Übergehend zu
vom 15 um 15 UTC bis 15 um 18 UTC
Wind 38 kt aus Süd

TAF: ENSL 151100Z 1512/1518 19028KT 9000 SCT010 TEMPO 1512/1518 BKN007 BECMG 1515/1518 17038KT

Wetterbeobachtungen und Prognosen von mehr als 4000 Flughäfen (METAR und TAF Bericht).

Die verfügbaren Stationen werden durch gelbe und rote Markierungen auf der Karte dargestellt.

Führen Sie die Maus auf sie, um den Namen der Station zu sehen.

Darauf klicken, um die Beobachtung von Wetterbeobachtungen und Prognosen zu sehen.

Um die Karte zu ändern : klicken Sie auf den grünen Tasten mit einem schwarzen Kreuz Zum Vergrößern, auf den grünen Button mit einem Gedankenstrich zu verkleinern, oder auf die grünen Pfeile für benachbarte Karten.


METAR-TAF: